createdAt,value
2019-06-26T00:00:57.269Z,28.70
2019-06-26T00:03:27.241Z,28.80
2019-06-26T00:05:57.202Z,28.80
2019-06-26T00:08:27.183Z,28.70
2019-06-26T00:10:57.099Z,28.70
2019-06-26T00:13:27.199Z,28.60
2019-06-26T00:15:57.215Z,28.60
2019-06-26T00:18:27.164Z,28.50
2019-06-26T00:20:57.123Z,28.50
2019-06-26T00:23:27.098Z,28.40
2019-06-26T00:25:57.014Z,28.40
2019-06-26T00:28:26.920Z,28.40
2019-06-26T00:30:56.799Z,28.50
2019-06-26T00:33:26.756Z,28.50
2019-06-26T00:35:56.733Z,28.50
2019-06-26T00:38:26.638Z,28.40
2019-06-26T00:40:56.595Z,28.40
2019-06-26T00:43:41.592Z,28.40
2019-06-26T00:45:58.097Z,28.40
2019-06-26T00:48:27.978Z,28.40
2019-06-26T00:50:58.043Z,28.40
2019-06-26T00:53:27.931Z,28.40
2019-06-26T00:55:57.956Z,28.40
2019-06-26T00:58:27.891Z,28.40
2019-06-26T01:00:57.807Z,28.40
2019-06-26T01:03:27.724Z,28.30
2019-06-26T01:05:57.718Z,28.30
2019-06-26T01:08:27.618Z,28.30
2019-06-26T01:10:57.579Z,28.20
2019-06-26T01:13:27.574Z,28.10
2019-06-26T01:15:57.530Z,28.10
2019-06-26T01:18:27.492Z,28.10
2019-06-26T01:20:57.672Z,28.10
2019-06-26T01:23:27.544Z,28.00
2019-06-26T01:25:57.468Z,27.90
2019-06-26T01:28:27.381Z,27.90
2019-06-26T01:30:57.282Z,27.80
2019-06-26T01:33:28.407Z,27.90
2019-06-26T01:35:58.331Z,27.80
2019-06-26T01:38:28.240Z,27.70
2019-06-26T01:40:58.183Z,27.70
2019-06-26T01:43:28.119Z,27.70
2019-06-26T01:45:58.026Z,27.70
2019-06-26T01:48:27.918Z,27.70
2019-06-26T01:50:57.789Z,27.70
2019-06-26T01:53:27.784Z,27.70
2019-06-26T01:55:57.671Z,27.60
2019-06-26T01:58:27.573Z,27.60
2019-06-26T02:00:57.521Z,27.50
2019-06-26T02:03:27.407Z,27.40
2019-06-26T02:05:57.287Z,27.30
2019-06-26T02:08:27.225Z,27.30
2019-06-26T02:10:57.250Z,27.30
2019-06-26T02:13:27.151Z,27.20
2019-06-26T02:15:57.045Z,27.20
2019-06-26T02:18:40.406Z,27.20
2019-06-26T02:21:10.347Z,27.20
2019-06-26T02:23:40.324Z,27.20
2019-06-26T02:26:10.246Z,27.20
2019-06-26T02:28:40.253Z,27.20
2019-06-26T02:31:10.308Z,27.30
2019-06-26T02:33:40.278Z,27.20
2019-06-26T02:36:10.257Z,27.20
2019-06-26T02:38:40.185Z,27.20
2019-06-26T02:41:10.135Z,27.20
2019-06-26T02:43:40.023Z,27.30
2019-06-26T02:46:10.088Z,27.20
2019-06-26T02:48:40.088Z,26.70
2019-06-26T02:51:10.025Z,26.90
2019-06-26T02:53:39.906Z,26.90
2019-06-26T02:56:09.771Z,26.70
2019-06-26T02:58:39.750Z,26.50
2019-06-26T03:01:09.663Z,26.40
2019-06-26T03:03:39.576Z,26.40
2019-06-26T03:06:09.535Z,26.60
2019-06-26T03:08:39.488Z,26.40
2019-06-26T03:11:09.415Z,26.40
2019-06-26T03:13:39.419Z,26.40
2019-06-26T03:16:09.379Z,26.80
2019-06-26T03:18:39.546Z,26.80
2019-06-26T03:21:09.935Z,26.50
2019-06-26T03:23:39.846Z,26.40
2019-06-26T03:26:09.751Z,26.60
2019-06-26T03:28:39.638Z,26.50
2019-06-26T03:31:09.629Z,26.30
2019-06-26T03:33:39.589Z,26.20
2019-06-26T03:36:09.593Z,26.10
2019-06-26T03:38:39.551Z,26.10
2019-06-26T03:41:09.464Z,26.30
2019-06-26T03:43:39.379Z,26.50
2019-06-26T03:46:09.313Z,26.30
2019-06-26T03:48:39.413Z,26.30
2019-06-26T03:51:09.363Z,26.40
2019-06-26T03:53:39.503Z,26.30
2019-06-26T03:56:09.382Z,26.10
2019-06-26T03:58:39.343Z,26.10
2019-06-26T04:01:09.215Z,26.10
2019-06-26T04:03:39.135Z,26.20
2019-06-26T04:06:09.035Z,26.50
2019-06-26T04:08:38.922Z,26.70
2019-06-26T04:11:08.834Z,26.70
2019-06-26T04:13:38.746Z,26.80
2019-06-26T04:16:08.979Z,26.90
2019-06-26T04:21:15.494Z,26.90
2019-06-26T04:23:45.402Z,26.90
2019-06-26T04:26:15.270Z,26.90
2019-06-26T04:28:45.160Z,26.90
2019-06-26T04:31:15.042Z,27.00
2019-06-26T04:33:45.012Z,27.00
2019-06-26T04:36:14.930Z,27.10
2019-06-26T04:38:44.795Z,27.20
2019-06-26T04:41:14.703Z,27.40
2019-06-26T04:43:44.678Z,27.30
2019-06-26T04:46:14.583Z,27.10
2019-06-26T04:48:44.477Z,27.30
2019-06-26T04:51:14.365Z,27.30
2019-06-26T04:53:44.296Z,27.40
2019-06-26T04:56:14.239Z,27.50
2019-06-26T04:58:44.212Z,27.60
2019-06-26T05:01:14.093Z,27.60
2019-06-26T05:03:43.998Z,27.60
2019-06-26T05:06:13.880Z,27.50
2019-06-26T05:08:43.751Z,27.50
2019-06-26T05:11:13.616Z,27.60
2019-06-26T05:13:43.475Z,27.70
2019-06-26T05:16:15.609Z,27.70
2019-06-26T05:18:44.923Z,27.80
2019-06-26T05:21:14.826Z,27.80
2019-06-26T05:23:44.703Z,27.70
2019-06-26T05:26:14.621Z,27.90
2019-06-26T05:28:44.487Z,28.10
2019-06-26T05:31:14.367Z,28.00
2019-06-26T05:33:44.274Z,27.90
2019-06-26T05:36:14.139Z,27.90
2019-06-26T05:38:44.059Z,28.10
2019-06-26T05:41:13.923Z,28.20
2019-06-26T05:43:43.838Z,28.20
2019-06-26T05:46:26.897Z,28.30
2019-06-26T05:48:45.360Z,28.50
2019-06-26T05:51:15.358Z,28.50
2019-06-26T05:53:45.291Z,28.30
2019-06-26T05:56:15.201Z,28.50
2019-06-26T05:58:45.123Z,28.50
2019-06-26T06:01:15.155Z,28.70
2019-06-26T06:03:45.107Z,28.60
2019-06-26T06:06:15.092Z,28.70
2019-06-26T06:08:44.951Z,28.80
2019-06-26T06:11:14.893Z,28.90
2019-06-26T06:13:45.507Z,28.90
2019-06-26T06:16:15.371Z,29.00
2019-06-26T06:18:45.278Z,29.20
2019-06-26T06:21:15.200Z,28.90
2019-06-26T06:23:45.083Z,28.80
2019-06-26T06:26:15.199Z,28.30
2019-06-26T06:28:45.134Z,28.50
2019-06-26T06:31:15.033Z,28.80
2019-06-26T06:33:44.904Z,29.00
2019-06-26T06:36:14.818Z,29.10
2019-06-26T06:38:44.778Z,29.40
2019-06-26T06:41:14.753Z,29.30
2019-06-26T06:43:44.667Z,29.40
2019-06-26T06:46:14.622Z,29.60
2019-06-26T06:48:44.518Z,29.60
2019-06-26T06:51:14.420Z,29.60
2019-06-26T06:53:44.357Z,29.60
2019-06-26T06:56:15.041Z,29.60
2019-06-26T06:58:44.932Z,29.60
2019-06-26T07:01:14.836Z,29.80
2019-06-26T07:03:44.743Z,29.80
2019-06-26T07:06:14.699Z,29.80
2019-06-26T07:08:44.589Z,29.80
2019-06-26T07:11:14.468Z,30.00
2019-06-26T07:13:44.379Z,30.00
2019-06-26T07:16:14.333Z,30.10
2019-06-26T07:18:44.793Z,30.20
2019-06-26T07:21:14.736Z,30.20
2019-06-26T07:23:44.654Z,30.20
2019-06-26T07:26:14.575Z,30.40
2019-06-26T07:28:44.449Z,30.40
2019-06-26T07:31:14.386Z,30.40
2019-06-26T07:33:44.351Z,30.50
2019-06-26T07:36:14.246Z,30.60
2019-06-26T07:38:44.135Z,30.60
2019-06-26T07:41:14.095Z,30.70
2019-06-26T07:43:43.982Z,30.90
2019-06-26T07:46:13.875Z,31.00
2019-06-26T07:48:43.764Z,30.90
2019-06-26T07:51:13.634Z,30.70
2019-06-26T07:53:43.522Z,30.60
2019-06-26T07:56:13.430Z,30.80
2019-06-26T07:58:43.415Z,31.10
2019-06-26T08:01:13.314Z,31.10
2019-06-26T08:03:43.250Z,31.20
2019-06-26T08:06:13.157Z,31.40
2019-06-26T08:08:43.036Z,31.40
2019-06-26T08:11:12.911Z,31.20
2019-06-26T08:13:42.791Z,31.40
2019-06-26T08:16:12.685Z,31.40
2019-06-26T08:18:42.547Z,31.50
2019-06-26T08:21:13.105Z,31.60
2019-06-26T08:23:43.182Z,31.60
2019-06-26T08:26:13.082Z,31.70
2019-06-26T08:28:43.018Z,31.70
2019-06-26T08:31:12.946Z,31.70
2019-06-26T08:33:42.977Z,31.80
2019-06-26T08:36:12.840Z,31.90
2019-06-26T08:38:42.753Z,31.90
2019-06-26T08:41:12.755Z,31.80
2019-06-26T08:43:42.682Z,31.80
2019-06-26T08:46:12.562Z,32.00
2019-06-26T08:48:42.448Z,32.00
2019-06-26T08:51:12.316Z,31.40
2019-06-26T08:53:42.220Z,31.50
2019-06-26T08:56:12.234Z,31.80
2019-06-26T08:58:42.096Z,31.80
2019-06-26T09:01:11.995Z,32.20
2019-06-26T09:03:42.198Z,32.40
2019-06-26T09:06:12.133Z,32.50
2019-06-26T09:08:42.112Z,32.50
2019-06-26T09:11:12.001Z,32.40
2019-06-26T09:13:41.951Z,32.40
2019-06-26T09:16:11.824Z,32.00
2019-06-26T09:18:41.691Z,31.70
2019-06-26T09:21:11.563Z,31.80
2019-06-26T09:23:41.694Z,31.90
2019-06-26T09:26:11.599Z,32.20
2019-06-26T09:28:41.443Z,32.50
2019-06-26T09:31:11.333Z,32.60
2019-06-26T09:33:41.287Z,32.80
2019-06-26T09:36:11.179Z,32.80
2019-06-26T09:38:41.046Z,32.80
2019-06-26T09:41:10.919Z,32.80
2019-06-26T09:43:40.862Z,32.80
2019-06-26T09:46:10.800Z,32.80
2019-06-26T09:48:52.013Z,32.80
2019-06-26T09:51:13.239Z,32.80
2019-06-26T09:53:47.749Z,32.80
2019-06-26T09:56:14.785Z,32.80
2019-06-26T09:58:44.722Z,32.30
2019-06-26T10:01:14.691Z,31.90
2019-06-26T10:03:45.406Z,31.70
2019-06-26T10:06:15.450Z,31.60
2019-06-26T10:08:45.314Z,31.40
2019-06-26T10:11:15.371Z,31.40
2019-06-26T10:13:45.329Z,31.40
2019-06-26T10:16:15.262Z,31.40
2019-06-26T10:18:45.365Z,31.40
2019-06-26T10:21:15.350Z,31.40
2019-06-26T10:23:45.981Z,31.30
2019-06-26T10:26:15.917Z,31.30
2019-06-26T10:28:45.978Z,31.40
2019-06-26T10:31:18.338Z,32.00
2019-06-26T10:33:47.652Z,32.30
2019-06-26T10:36:17.512Z,32.50
2019-06-26T10:38:47.505Z,32.70
2019-06-26T10:41:17.435Z,32.70
2019-06-26T10:43:47.349Z,32.90
2019-06-26T10:46:17.224Z,32.80
2019-06-26T10:48:47.323Z,32.80
2019-06-26T10:51:17.236Z,32.80
2019-06-26T10:53:47.148Z,32.70
2019-06-26T10:56:17.164Z,32.80
2019-06-26T10:58:47.296Z,32.90
2019-06-26T11:01:17.284Z,33.00
2019-06-26T11:03:47.272Z,32.90
2019-06-26T11:06:17.275Z,32.80
2019-06-26T11:08:47.374Z,32.90
2019-06-26T11:11:17.327Z,33.30
2019-06-26T11:13:47.233Z,33.40
2019-06-26T11:16:17.280Z,33.30
2019-06-26T11:18:47.328Z,32.10
2019-06-26T11:21:17.338Z,31.50
2019-06-26T11:23:47.251Z,31.40
2019-06-26T11:26:17.199Z,31.20
2019-06-26T11:28:47.204Z,31.30
2019-06-26T11:31:17.191Z,31.20
2019-06-26T11:33:47.176Z,31.10
2019-06-26T11:36:17.179Z,31.10
2019-06-26T11:38:47.104Z,31.10
2019-06-26T11:41:17.155Z,31.10
2019-06-26T11:43:47.166Z,31.10
2019-06-26T11:46:17.256Z,31.10
2019-06-26T11:48:47.245Z,31.10
2019-06-26T11:51:17.236Z,31.10
2019-06-26T11:53:47.160Z,31.10
2019-06-26T11:56:17.163Z,31.10
2019-06-26T11:58:47.156Z,31.00
2019-06-26T12:01:17.080Z,31.00
2019-06-26T12:03:47.159Z,31.10
2019-06-26T12:06:19.132Z,31.70
2019-06-26T12:08:48.873Z,32.00
2019-06-26T12:11:18.813Z,32.50
2019-06-26T12:13:48.978Z,32.60
2019-06-26T12:16:19.126Z,32.80
2019-06-26T12:18:49.250Z,33.00
2019-06-26T12:21:20.204Z,32.90
2019-06-26T12:23:50.126Z,32.90
2019-06-26T12:26:20.104Z,32.80
2019-06-26T12:28:50.111Z,33.00
2019-06-26T12:31:20.103Z,32.80
2019-06-26T12:33:50.139Z,33.00
2019-06-26T12:36:20.127Z,32.80
2019-06-26T12:38:50.178Z,32.80
2019-06-26T12:41:20.194Z,32.80
2019-06-26T12:43:50.181Z,33.10
2019-06-26T12:46:20.139Z,33.10
2019-06-26T12:48:50.119Z,33.20
2019-06-26T12:51:20.043Z,33.40
2019-06-26T12:53:50.015Z,33.60
2019-06-26T12:56:20.069Z,33.40
2019-06-26T12:58:50.087Z,33.20
2019-06-26T13:01:20.156Z,33.20
2019-06-26T13:03:50.203Z,33.40
2019-06-26T13:06:20.244Z,33.20
2019-06-26T13:08:50.230Z,33.20
2019-06-26T13:11:20.600Z,33.70
2019-06-26T13:14:02.019Z,34.30
2019-06-26T13:16:23.359Z,33.90
2019-06-26T13:18:53.248Z,33.70
2019-06-26T13:21:23.175Z,33.90
2019-06-26T13:23:53.144Z,34.00
2019-06-26T13:26:23.160Z,33.80
2019-06-26T13:28:53.066Z,33.90
2019-06-26T13:31:22.979Z,34.00
2019-06-26T13:33:52.904Z,34.00
2019-06-26T13:36:22.830Z,34.00
2019-06-26T13:38:52.715Z,34.10
2019-06-26T13:41:22.725Z,34.20
2019-06-26T13:43:52.649Z,34.20
2019-06-26T13:46:22.659Z,34.30
2019-06-26T13:48:52.688Z,33.20
2019-06-26T13:51:22.651Z,32.90
2019-06-26T13:53:52.675Z,32.60
2019-06-26T13:56:22.554Z,33.10
2019-06-26T13:58:52.488Z,33.90
2019-06-26T14:01:23.246Z,33.90
2019-06-26T14:03:53.392Z,33.90
2019-06-26T14:06:23.320Z,33.90
2019-06-26T14:08:53.269Z,34.70
2019-06-26T14:11:23.376Z,34.60
2019-06-26T14:13:53.364Z,34.30
2019-06-26T14:16:23.376Z,34.60
2019-06-26T14:18:53.295Z,34.60
2019-06-26T14:21:25.956Z,35.00
2019-06-26T14:23:54.998Z,35.20
2019-06-26T14:26:25.154Z,35.20
2019-06-26T14:28:55.148Z,35.10
2019-06-26T14:31:25.115Z,35.10
2019-06-26T14:33:55.018Z,35.20
2019-06-26T14:36:24.944Z,35.30
2019-06-26T14:38:54.899Z,35.50
2019-06-26T14:41:24.793Z,35.70
2019-06-26T14:43:54.749Z,35.60
2019-06-26T14:46:24.685Z,35.80
2019-06-26T14:48:54.566Z,36.20
2019-06-26T14:51:40.950Z,36.00
2019-06-26T14:53:56.068Z,36.30
2019-06-26T14:56:26.019Z,36.60
2019-06-26T14:58:55.920Z,36.70
2019-06-26T15:01:25.845Z,38.30
2019-06-26T15:03:55.776Z,41.50
2019-06-26T15:06:25.801Z,43.80
2019-06-26T15:08:55.679Z,45.90
2019-06-26T15:11:25.623Z,46.20
2019-06-26T15:13:55.862Z,47.40
2019-06-26T15:16:26.150Z,47.20
2019-06-26T15:18:56.083Z,45.30
2019-06-26T15:21:26.490Z,46.70
2019-06-26T15:23:56.401Z,48.70
2019-06-26T15:26:26.328Z,48.70
2019-06-26T15:28:56.199Z,49.10
2019-06-26T15:31:26.218Z,48.70
2019-06-26T15:33:56.210Z,49.80
2019-06-26T15:36:26.209Z,49.30
2019-06-26T15:38:59.124Z,49.30
2019-06-26T15:41:27.391Z,49.60
2019-06-26T15:43:57.412Z,50.00
2019-06-26T15:46:27.360Z,50.10
2019-06-26T15:48:57.343Z,48.20
2019-06-26T15:51:27.472Z,47.30
2019-06-26T15:53:59.981Z,45.60
2019-06-26T15:56:29.103Z,43.10
2019-06-26T15:58:59.167Z,41.10
2019-06-26T16:01:29.372Z,40.50
2019-06-26T16:03:59.344Z,39.60
2019-06-26T16:06:29.448Z,39.30
2019-06-26T16:08:59.372Z,39.10
2019-06-26T16:11:29.397Z,38.80
2019-06-26T16:13:59.464Z,38.20
2019-06-26T16:16:30.130Z,38.10
2019-06-26T16:19:04.810Z,37.90
2019-06-26T16:21:34.776Z,37.80
2019-06-26T16:24:04.860Z,37.70
2019-06-26T16:26:34.967Z,37.30
2019-06-26T16:29:05.077Z,37.20
2019-06-26T16:31:35.033Z,37.20
2019-06-26T16:34:05.324Z,37.20
2019-06-26T16:36:35.335Z,37.10
2019-06-26T16:39:06.779Z,37.00
2019-06-26T16:41:37.027Z,36.90
2019-06-26T16:44:06.968Z,36.80
2019-06-26T16:46:36.866Z,36.70
2019-06-26T16:49:06.795Z,36.60
2019-06-26T16:51:37.400Z,36.60
2019-06-26T16:54:07.386Z,36.40
2019-06-26T16:56:37.295Z,36.00
2019-06-26T16:59:07.303Z,36.20
2019-06-26T17:01:37.172Z,36.20
2019-06-26T17:04:07.227Z,36.20
2019-06-26T17:06:37.139Z,36.20
2019-06-26T17:09:08.252Z,36.20
2019-06-26T17:11:38.309Z,35.80
2019-06-26T17:14:08.382Z,35.90
2019-06-26T17:16:38.287Z,35.70
2019-06-26T17:19:08.279Z,35.60
2019-06-26T17:21:38.186Z,35.60
2019-06-26T17:24:08.110Z,35.60
2019-06-26T17:26:37.966Z,35.50
2019-06-26T17:29:07.849Z,35.60
2019-06-26T17:31:37.741Z,35.70
2019-06-26T17:34:07.699Z,35.80
2019-06-26T17:36:37.561Z,35.60
2019-06-26T17:39:07.687Z,35.50
2019-06-26T17:41:37.659Z,35.40
2019-06-26T17:44:07.619Z,35.40
2019-06-26T17:46:37.494Z,35.40
2019-06-26T17:49:07.398Z,35.30
2019-06-26T17:51:37.357Z,35.10
2019-06-26T17:54:07.488Z,35.10
2019-06-26T17:56:37.384Z,35.00
2019-06-26T17:59:07.385Z,34.80
2019-06-26T18:01:37.380Z,34.90
2019-06-26T18:04:07.295Z,34.90
2019-06-26T18:06:37.179Z,34.80
2019-06-26T18:09:12.022Z,34.90
2019-06-26T18:11:40.600Z,34.90
2019-06-26T18:14:10.560Z,34.90
2019-06-26T18:16:40.491Z,34.90
2019-06-26T18:19:10.368Z,34.80
2019-06-26T18:21:40.323Z,34.70
2019-06-26T18:24:10.323Z,34.80
2019-06-26T18:26:40.228Z,34.70
2019-06-26T18:29:10.152Z,34.70
2019-06-26T18:31:40.037Z,34.60
2019-06-26T18:34:09.934Z,34.60
2019-06-26T18:36:39.899Z,34.60
2019-06-26T18:39:09.959Z,34.60
2019-06-26T18:41:39.943Z,34.50
2019-06-26T18:44:09.859Z,34.50
2019-06-26T18:46:39.779Z,34.40
2019-06-26T18:49:09.675Z,34.50
2019-06-26T18:51:39.546Z,34.40
2019-06-26T18:54:09.454Z,34.40
2019-06-26T18:56:39.420Z,34.40
2019-06-26T18:59:09.769Z,34.30
2019-06-26T19:01:40.724Z,34.20
2019-06-26T19:04:10.658Z,34.30
2019-06-26T19:06:40.591Z,34.30
2019-06-26T19:09:10.606Z,34.10
2019-06-26T19:11:40.532Z,34.00
2019-06-26T19:14:10.467Z,33.90
2019-06-26T19:16:40.404Z,33.90
2019-06-26T19:19:12.411Z,33.80
2019-06-26T19:21:41.914Z,33.70
2019-06-26T19:24:11.958Z,33.60
2019-06-26T19:26:41.877Z,33.50
2019-06-26T19:29:11.853Z,33.50
2019-06-26T19:31:41.766Z,33.60
2019-06-26T19:34:11.691Z,33.30
2019-06-26T19:36:49.969Z,33.10
2019-06-26T19:39:13.951Z,33.00
2019-06-26T19:41:43.903Z,32.90
2019-06-26T19:44:13.795Z,32.80
2019-06-26T19:46:43.746Z,32.80
2019-06-26T19:49:13.659Z,32.80
2019-06-26T19:51:43.592Z,32.70
2019-06-26T19:54:26.653Z,32.70
2019-06-26T19:56:45.226Z,32.60
2019-06-26T19:59:15.235Z,32.60
2019-06-26T20:01:45.142Z,32.60
2019-06-26T20:04:15.258Z,32.70
2019-06-26T20:06:45.172Z,32.70
2019-06-26T20:09:15.162Z,32.60
2019-06-26T20:11:45.102Z,32.50
2019-06-26T20:14:15.146Z,32.50
2019-06-26T20:16:45.109Z,32.60
2019-06-26T20:19:15.008Z,32.60
2019-06-26T20:21:44.942Z,32.50
2019-06-26T20:24:14.900Z,32.50
2019-06-26T20:26:44.857Z,32.50
2019-06-26T20:29:14.875Z,32.40
2019-06-26T20:31:44.812Z,32.50
2019-06-26T20:34:14.707Z,32.50
2019-06-26T20:36:44.719Z,32.50
2019-06-26T20:39:14.725Z,32.40
2019-06-26T20:41:44.627Z,32.30
2019-06-26T20:44:14.731Z,32.30
2019-06-26T20:46:44.703Z,32.30
2019-06-26T20:49:14.655Z,32.20
2019-06-26T20:51:44.547Z,32.20
2019-06-26T20:54:14.643Z,32.20
2019-06-26T20:56:44.558Z,32.20
2019-06-26T20:59:14.561Z,32.20
2019-06-26T21:01:44.581Z,32.20
2019-06-26T21:04:14.482Z,32.10
2019-06-26T21:06:44.713Z,32.10
2019-06-26T21:09:14.652Z,32.00
2019-06-26T21:11:44.652Z,32.10
2019-06-26T21:14:14.567Z,32.00
2019-06-26T21:16:44.543Z,32.00
2019-06-26T21:19:14.584Z,31.90
2019-06-26T21:21:44.532Z,31.90
2019-06-26T21:24:14.525Z,31.90
2019-06-26T21:26:44.557Z,31.90
2019-06-26T21:29:14.499Z,31.90
2019-06-26T21:31:44.438Z,31.90
2019-06-26T21:34:14.373Z,31.80
2019-06-26T21:36:44.464Z,31.70
2019-06-26T21:39:14.512Z,31.80
2019-06-26T21:41:44.415Z,31.70
2019-06-26T21:44:14.291Z,31.70
2019-06-26T21:46:44.285Z,31.60
2019-06-26T21:49:14.182Z,31.60
2019-06-26T21:51:44.151Z,31.60
2019-06-26T21:54:14.058Z,31.50
2019-06-26T21:56:43.992Z,31.50
2019-06-26T21:59:13.981Z,31.40
2019-06-26T22:01:44.059Z,31.40
2019-06-26T22:04:13.968Z,31.40
2019-06-26T22:06:44.377Z,31.30
2019-06-26T22:09:14.440Z,31.40
2019-06-26T22:11:44.431Z,31.30
2019-06-26T22:14:16.917Z,31.30
2019-06-26T22:16:46.896Z,31.40
2019-06-26T22:19:16.878Z,31.40
2019-06-26T22:21:46.942Z,31.30
2019-06-26T22:24:17.227Z,31.20
2019-06-26T22:26:47.266Z,31.20
2019-06-26T22:29:17.235Z,31.30
2019-06-26T22:31:47.266Z,31.20
2019-06-26T22:34:17.135Z,31.20
2019-06-26T22:36:51.773Z,31.20
2019-06-26T22:39:18.628Z,31.20
2019-06-26T22:41:48.607Z,31.20
2019-06-26T22:44:18.483Z,31.10
2019-06-26T22:46:48.402Z,31.00
2019-06-26T22:49:18.350Z,31.00
2019-06-26T22:51:48.363Z,30.80
2019-06-26T22:54:19.824Z,30.90
2019-06-26T22:56:50.108Z,30.80
2019-06-26T22:59:20.037Z,30.90
2019-06-26T23:01:50.063Z,30.90
2019-06-26T23:04:20.048Z,30.80
2019-06-26T23:06:50.211Z,30.80
2019-06-26T23:09:20.140Z,30.60
2019-06-26T23:11:50.224Z,30.50
2019-06-26T23:14:20.391Z,30.50
2019-06-26T23:16:50.428Z,30.60
2019-06-26T23:19:20.360Z,30.60
2019-06-26T23:21:50.392Z,30.70
2019-06-26T23:24:20.419Z,30.60
2019-06-26T23:26:50.565Z,30.50
2019-06-26T23:29:20.541Z,30.50
2019-06-26T23:31:50.489Z,30.50
2019-06-26T23:34:20.397Z,30.40
2019-06-26T23:36:50.389Z,30.40
2019-06-26T23:39:20.381Z,30.50
2019-06-26T23:41:50.429Z,30.50
2019-06-26T23:44:20.405Z,30.40
2019-06-26T23:46:50.326Z,30.40
2019-06-26T23:49:20.256Z,30.40
2019-06-26T23:51:50.170Z,30.20
2019-06-26T23:54:20.140Z,30.10
2019-06-26T23:56:50.115Z,30.20
2019-06-26T23:59:20.018Z,30.00
